Rice Lake, WI

7:18 PM CDT on June 03, 2015 (GMT -0500)
Shell Lake | | Change Station
CLOSE
Current Station
Personal Weather Station
Location: Shell Lake, WI
Elevation: 1230 ft
Nearby Weather Stations

Elev 1230 ft 45.72 °N, 91.89 °W | Updated 30 seconds ago

Rain
Rain
61.6 °F
Feels Like 61.6 °F
N
0.0
Wind Variable Wind from North
Gusts 0.0 mph

Today
High -- | Low -- °F
--% Chance of Precip.
Yesterday
High -- | Low -- °F
Precip. -- in
5:20 AM 8:50 PM
Full, 98% visible
Pressure 29.88 in
Visibility 7.0 miles
Clouds Mostly Cloudy 4800 ft
Mostly Cloudy 7000 ft
Overcast 10000 ft
Dew Point 60 °F
Humidity 94%
Rainfall 0.07 in
Snow Depth Not available.
UV 0 out of 12
Pollen 5.60 out of 12
Air Quality Not available.
Flu Activity Sporadic
METAR KUBE 032355Z AUTO 11004KT 7SM -DZ BKN048 BKN070 OVC100 16/15 A2988 RMK AO2 P0002

More Conditions Fewer Conditions

Pressure 29.88 in
Visibility 7.0 miles
Clouds Mostly Cloudy 4800 ft
Mostly Cloudy 7000 ft
Overcast 10000 ft
Dew Point 60 °F
Humidity 94%
Rainfall 0.07 in
Snow Depth Not available.
UV 0 out of 12
Pollen 5.60 out of 12
Air Quality Not available.
Flu Activity Sporadic
METAR KUBE 032355Z AUTO 11004KT 7SM -DZ BKN048 BKN070 OVC100 16/15 A2988 RMK AO2 P0002

More Conditions Fewer Conditions

10-Day Weather Forecast

×

Almanac

Astronomy

Jun. 03, 2015 Rise Set
Actual Time
Civil Twilight
Nautical Twilight
Astronomical Twilight
Moon
Length of Visible Light
Length of Day
Tomorrow will be .
, % of the Moon is Illuminated

Today's Extremes

State Highs State Lows

Community

WunderPhotos

Upload Photos

1,826,310 photos uploaded!

WunderBlogs® & News

Nearby

Air Quality

  Air Quality AQ Index Pollutant
Not available.

Snow Depth

Station Depth Elevation

Earthquake Activity

City Distance Mag. Time & Date
Minimum magnitude displayed is 2.5.

Coastal Water Temperatures

Place Temperature

Stations

Nearby Weather Stations

Station Location Temp. Windchill Dew Point Humidity Wind Precip. Elev Updated Type